Mason Valley Wildlife Refuge, Nevada Weather observations

Data are for 10 minute period ending at time listed.
 Day   Time   Solar   Ave.   Ave.  Ave.  Vector  Max.   Baro.   Total    
  of    of     Rad.   Air    Rel.  Wind   Wind   Wind  Press.  Precip.   
Year   Day            Temp.  Hum.  Speed  Dir.   Gust                    
2016   (PST)  Kw/m2    F      %     mph   deg.    mph    mb.     in.     
-------------------------------------------------------------------------
 339   12:50   0.20   43.9    34    3.7    82     6.8   869.1    0.00 
 339   13:00   0.27   44.5    33    3.9    77     7.5   869.0    0.00 
 339   13:10   0.17   44.2    33    3.3    54     5.2   868.8    0.00 
 339   13:20   0.16   44.8    33    2.9    83     6.2   868.6    0.00 
 339   13:30   0.24   45.3    32    2.3    78     5.3   868.5    0.00 
 339   13:40   0.27   46.4    32    3.9    82     7.5   868.4    0.00 
 339   13:50   0.16   45.5    31    3.3    99     6.9   868.4    0.00 
 339   14:00   0.11   45.2    32    3.1   125     8.5   868.0    0.00 
 339   14:10   0.10   45.5    31    3.0   110     6.1   868.0    0.00 
 339   14:20   0.09   45.4    32    2.3    88     4.9   867.9    0.00 
 339   14:30   0.10   45.5    32    2.4    93     5.8   867.7    0.00 
 339   14:40   0.10   45.9    32    0.8    92     3.9   867.7    0.00 
 339   14:50   0.10   46.0    32    1.6    91     5.3   867.6    0.00 
 339   15:00   0.14   46.2    32    1.7    81     3.9   867.5    0.00 
 339   15:10   0.16   46.6    31    1.9    72     3.7   867.5    0.00 
 339   15:20   0.12   46.7    30    2.1   105     3.9   867.5    0.00 
 339   15:30   0.12   46.9    30    2.0   124     3.6   867.3    0.00 
 339   15:40   0.08   46.7    30    1.7   139     3.6   867.3    0.00 
 339   15:50   0.05   46.2    30    1.4   114     3.2   867.2    0.00 
 339   16:00   0.03   44.8    34    3.0    22     3.9   867.1    0.00 
 339   16:10   0.02   44.3    34    1.4   137     3.4   867.0    0.00 
 339   16:20   0.01   43.8    33    0.7   126     2.2   866.8    0.00 
 339   16:30   0.01   43.0    34    1.9   104     3.9   866.7    0.00 
 339   16:40   0.00   42.3    34    2.6   107     3.8   866.4    0.00 
 339   16:50   0.00   41.5    36    0.8   103     3.1   866.4    0.00 
 339   17:00   0.00   39.9    40    3.0    46     5.0   866.3    0.00 
 339   17:10   0.00   40.3    37    3.6    78     6.1   866.2    0.00 
 339   17:20   0.00   39.1    41    1.6   335     8.0   866.2    0.00 
 339   17:30   0.00   37.9    45    1.2    51     3.8   866.2    0.00 
 339   17:40   0.00   36.9    48    1.0    96     3.6   866.2    0.00 
 339   17:50   0.00   35.1    52    2.3   288     5.8   866.1    0.00 
 339   18:00   0.00   35.2    48    2.8   262     7.0   866.1    0.00 
 339   18:10   0.00   35.6    48    3.2   195     7.7   866.0    0.00 
 339   18:20   0.00   35.2    51    2.1   201     5.2   866.0    0.00 
 339   18:30   0.00   34.0    52    2.4    96     4.1   865.9    0.00 
 339   18:40   0.00   33.7    52    1.0   156     4.6   865.8    0.00 
 339   18:50   0.00   34.3    51    0.4   334     2.3   865.9    0.00 
 339   19:00   0.00   34.3    51    1.3   263     3.0   865.8    0.00 
 339   19:10   0.00   33.1    54    1.1   269     2.9   865.8    0.00 
 339   19:20   0.00   32.5    58    2.2   359     5.3   865.8    0.00 
 339   19:30   0.00   35.0    52    2.1   281     3.9   865.7    0.00 
 339   19:40   0.00   35.4    48    4.6   250     8.3   865.6    0.00 
 339   19:50   0.00   36.3    47    5.6   249     8.3   865.6    0.00 
 339   20:00   0.00   35.8    50    5.6   247     8.2   865.5    0.00 
 339   20:10   0.00   37.4    47    5.8   253     7.2   865.6    0.00 
 339   20:20   0.00   41.0    41    5.7   246    15.2   865.4    0.00 
 339   20:30   0.00   42.1    38    5.2   265     9.3   865.5    0.00 
 339   20:40   0.00   45.9    33    5.3   277     9.3   865.7    0.00 
 339   20:50   0.00   50.6    28    9.9   276    21.0   865.9    0.00 
 339   21:00   0.00   51.5    27    6.5   281    13.0   865.9    0.00 
 339   21:10   0.00   52.0    26    8.9   282    17.2   866.0    0.00 
 339   21:20   0.00   51.7    27    8.3   279    16.7   865.9    0.00 
 339   21:30   0.00   51.5    27    8.2   273    11.7   866.0    0.00 
 339   21:40   0.00   49.9    28    8.2   262    12.9   865.9    0.00 
 339   21:50   0.00   48.6    29    9.6   256    19.1   865.8    0.00 
 339   22:00   0.00   52.7    27   13.4   258    26.8   865.8    0.00 
 339   22:10   0.00   50.4    28    9.8   266    13.7   866.1    0.00 
 339   22:20   0.00   49.2    30    7.2   273    11.3   866.2    0.00 
 339   22:30   0.00   48.0    31    5.4   282     7.9   866.4    0.00 
 339   22:40   0.00   45.7    32    3.5   296     5.3   866.4    0.00 
 339   22:50   0.00   43.5    35    2.5   350     5.1   866.4    0.00 
 339   23:00   0.00   40.5    40    1.5   112     5.2   866.3    0.00 
 339   23:10   0.00   41.3    39    1.1   314     5.0   866.3    0.00 
 339   23:20   0.00   39.5    44    1.3   351     5.0   866.4    0.00 
 339   23:30   0.00   40.7    42    2.4    53     4.4   866.3    0.00 
 339   23:40   0.00   39.2    44    2.0   240     5.3   866.3    0.00 
 339   23:50   0.00   37.9    45    1.3   165     3.8   866.2    0.00 
 340    0:00   0.00   39.3    44    4.7   253    10.1   866.1    0.00 
 340    0:10   0.00   41.4    40    4.3   256     8.0   866.0    0.00 
 340    0:20   0.00   38.8    44    3.3   213     5.7   866.1    0.00 
 340    0:30   0.00   37.4    48    4.0   275     8.6   866.1    0.00 
 340    0:40   0.00   35.0    52    4.4   257     7.7   866.1    0.00 
 340    0:50   0.00   38.2    48    6.2   315    11.2   866.0    0.00 
 340    1:00   0.00   40.5    44    5.3   321     9.3   866.0    0.00 
 340    1:10   0.00   40.3    44    4.3   317     8.6   866.1    0.00 
 340    1:20   0.00   39.5    45    1.2   334     3.7   866.3    0.00 
 340    1:30   0.00   37.5    48    1.0   279     3.5   866.2    0.00 
 340    1:40   0.00   36.2    50    1.7   108     4.2   866.3    0.00 
 340    1:50   0.00   36.0    50    2.8   148     4.5   866.3    0.00 
 340    2:00   0.00   35.2    51    3.0   168     5.3   866.4    0.00 
 340    2:10   0.00   40.0    43    3.3    54     8.7   866.5    0.00 
 340    2:20   0.00   39.1    44    1.7    70     4.2   866.5    0.00 
 340    2:30   0.00   37.9    45    2.1    70     4.6   866.6    0.00 
 340    2:40   0.00   38.0    47    2.6   356     3.7   866.5    0.00 
 340    2:50   0.00   40.8    41    4.9    14     7.7   866.4    0.00 
 340    3:00   0.00   37.0    48    3.6    13     4.7   866.4    0.00 
 340    3:10   0.00   35.8    50    2.8     5     4.5   866.3    0.00 
 340    3:20   0.00   35.6    50    2.2   306     4.7   866.3    0.00 
 340    3:30   0.00   32.9    54    3.6   257     5.3   866.3    0.00 
 340    3:40   0.00   27.5    62    2.8   197     4.5   866.3    0.00 
 340    3:50   0.00   26.1    68    4.4   166     6.7   866.4    0.00 
 340    4:00   0.00   26.2    68    4.2   184     7.0   866.5    0.00 
 340    4:10   0.00   28.1    65    3.7   169     5.6   866.4    0.00 
 340    4:20   0.00   26.1    65    1.8   198     3.4   866.4    0.00 
 340    4:30   0.00   24.3    71    3.5   202     5.6   866.4    0.00 
 340    4:40   0.00   23.4    72    2.8   209     5.6   866.5    0.00 
 340    4:50   0.00   22.6    79    3.7   187     4.6   866.4    0.00 
 340    5:00   0.00   23.6    72    3.3   171     4.7   866.5    0.00 
 340    5:10   0.00   22.0    71    3.8   150     5.5   866.7    0.00 
 340    5:20   0.00   21.3    76    4.1   179     4.7   866.9    0.00 
 340    5:30   0.00   19.5    76    4.1   193     6.0   867.0    0.00 
 340    5:40   0.00   18.9    80    4.1   180     4.9   867.1    0.00 
 340    5:50   0.00   19.3    78    3.9   198     5.1   867.1    0.00 
 340    6:00   0.00   19.9    78    3.5   204     4.9   867.1    0.00 
 340    6:10   0.00   18.9    77    2.3   182     3.3   867.1    0.00 
 340    6:20   0.00   17.0    80    1.3   122     2.3   867.2    0.00 
 340    6:30   0.00   16.0    82    2.9   142     4.7   867.3    0.00 
 340    6:40   0.00   16.4    83    2.7   161     4.5   867.3    0.00 
 340    6:50   0.00   15.7    82    2.3    89     3.9   867.4    0.00 
 340    7:00   0.00   15.4    84    2.4   111     3.8   867.5    0.00 
 340    7:10   0.01   15.5    83    1.0   102     2.8   867.6    0.00 
 340    7:20   0.02   15.5    83    0.9   103     2.0   867.9    0.00 
 340    7:30   0.04   16.9    81    1.4   111     3.9   868.0    0.00 
 340    7:40   0.05   19.5    80    1.9   139     3.5   868.0    0.00 
 340    7:50   0.07   21.1    76    0.8   288     2.9   868.0    0.00 
 340    8:00   0.08   22.7    77    1.4   198     3.3   868.0    0.00 
 340    8:10   0.09   24.5    76    2.1   228     4.2   868.0    0.00 
 340    8:20   0.11   25.7    74    4.7    11     6.9   868.3    0.00 
 340    8:30   0.13   28.1    72    2.7   355     4.4   868.2    0.00 
 340    8:40   0.14   31.0    65    0.6    67     1.9   868.3    0.00 
 340    8:50   0.16   34.4    57    0.2   196     1.4   868.3    0.00 
 340    9:00   0.20   37.6    51    0.1   120     1.5   868.3    0.00 
 340    9:10   0.24   40.6    47    0.1   140     1.0   868.4    0.00 
 340    9:20   0.30   41.9    50    0.7   342     4.3   868.5    0.00 
 340    9:30   0.30   41.0    54    1.5    12     3.3   868.6    0.00 
 340    9:40   0.28   40.6    62    5.7    44     9.0   868.8    0.00 
 340    9:50   0.29   40.9    61    7.8    48    11.2   868.8    0.00 
 340   10:00   0.26   40.2    61    7.2    48    10.4   868.7    0.00 
 340   10:10   0.27   40.5    61    6.6    48     9.3   868.7    0.00 
 340   10:20   0.26   40.4    62    5.8    46    10.2   868.6    0.00 
 340   10:30   0.31   40.9    60    4.9    57     8.3   868.4    0.00 
 340   10:40   0.34   41.4    59    5.1    48     7.9   868.4    0.00 
 340   10:50   0.37   41.7    59    6.1    33     9.6   868.3    0.00 
 340   11:00   0.32   41.7    58    5.0    57     8.4   868.1    0.00 
 340   11:10   0.31   42.2    56    4.1    71     7.5   868.1    0.00 
 340   11:20   0.34   42.3    54    4.2    46     8.1   867.9    0.00 
 340   11:30   0.34   42.5    54    4.1    25     8.3   867.7    0.00 
 340   11:40   0.30   42.6    54    4.7    16     7.9   867.5    0.00 
 340   11:50   0.27   42.7    53    4.3    26     7.9   867.4    0.00 
 340   12:00   0.28   42.4    54    4.1    45     8.0   867.3    0.00 
 340   12:10   0.28   42.8    53    3.6    34     8.3   867.1    0.00 
 340   12:20   0.26   42.9    52    2.6    37     5.8   867.0    0.00 
 340   12:30   0.25   42.9    54    5.3    64     8.3   866.8    0.00 
 340   12:40   0.23   42.5    54    4.0    73     6.7   866.6    0.00 

Return to Mason Valley Wildlife Refuge graphs page.


Western Regional Climate Center,wrcc@dri.edu